sensor_id;sensor_type;location;lat;lon;timestamp;pressure;altitude;pressure_sealevel;temperature;humidity
38912;BME280;28444;48.056;14.408;2022-10-20T00:01:17;98374.63;;;9.61;76.71
38912;BME280;28444;48.056;14.408;2022-10-20T00:03:44;98364.25;;;9.59;76.19
38912;BME280;28444;48.056;14.408;2022-10-20T00:06:18;98369.31;;;9.55;77.33
38912;BME280;28444;48.056;14.408;2022-10-20T00:08:45;98367.31;;;9.56;77.88
38912;BME280;28444;48.056;14.408;2022-10-20T00:11:15;98363.84;;;9.55;78.25
38912;BME280;28444;48.056;14.408;2022-10-20T00:13:43;98362.97;;;9.60;77.95
38912;BME280;28444;48.056;14.408;2022-10-20T00:16:11;98364.38;;;9.54;77.97
38912;BME280;28444;48.056;14.408;2022-10-20T00:18:38;98358.06;;;9.59;77.50
38912;BME280;28444;48.056;14.408;2022-10-20T00:21:23;98357.44;;;9.53;79.09
38912;BME280;28444;48.056;14.408;2022-10-20T00:23:51;98360.91;;;9.53;78.09
38912;BME280;28444;48.056;14.408;2022-10-20T00:26:25;98352.72;;;9.53;77.63
38912;BME280;28444;48.056;14.408;2022-10-20T00:28:53;98357.44;;;9.53;77.61
38912;BME280;28444;48.056;14.408;2022-10-20T00:31:21;98348.16;;;9.48;77.79
38912;BME280;28444;48.056;14.408;2022-10-20T00:33:48;98352.66;;;9.46;77.88
38912;BME280;28444;48.056;14.408;2022-10-20T00:36:17;98340.28;;;9.45;78.39
38912;BME280;28444;48.056;14.408;2022-10-20T00:38:45;98339.75;;;9.46;78.70
38912;BME280;28444;48.056;14.408;2022-10-20T00:41:13;98332.28;;;9.47;78.83
38912;BME280;28444;48.056;14.408;2022-10-20T00:43:47;98331.03;;;9.48;77.64
38912;BME280;28444;48.056;14.408;2022-10-20T00:46:17;98314.66;;;9.48;77.88
38912;BME280;28444;48.056;14.408;2022-10-20T00:48:48;98323.56;;;9.48;77.80
38912;BME280;28444;48.056;14.408;2022-10-20T00:51:17;98321.75;;;9.51;78.47
38912;BME280;28444;48.056;14.408;2022-10-20T00:53:45;98315.00;;;9.44;77.68
38912;BME280;28444;48.056;14.408;2022-10-20T00:56:14;98304.25;;;9.46;78.05
38912;BME280;28444;48.056;14.408;2022-10-20T00:58:42;98309.38;;;9.50;78.32
38912;BME280;28444;48.056;14.408;2022-10-20T01:01:10;98303.53;;;9.46;77.49
38912;BME280;28444;48.056;14.408;2022-10-20T01:03:48;98301.16;;;9.42;78.18
38912;BME280;28444;48.056;14.408;2022-10-20T01:06:17;98314.25;;;9.44;78.24
38912;BME280;28444;48.056;14.408;2022-10-20T01:08:44;98309.59;;;9.52;78.21
38912;BME280;28444;48.056;14.408;2022-10-20T01:11:40;98303.19;;;9.49;77.47
38912;BME280;28444;48.056;14.408;2022-10-20T01:17:07;98294.06;;;9.47;77.12
38912;BME280;28444;48.056;14.408;2022-10-20T01:28:11;98287.16;;;9.46;76.58
38912;BME280;28444;48.056;14.408;2022-10-20T01:29:45;98286.94;;;9.44;78.68
38912;BME280;28444;48.056;14.408;2022-10-20T01:32:42;98287.84;;;9.38;78.02
38912;BME280;28444;48.056;14.408;2022-10-20T01:38:19;98275.34;;;9.51;78.81
38912;BME280;28444;48.056;14.408;2022-10-20T01:40:53;98274.28;;;9.54;78.28
38912;BME280;28444;48.056;14.408;2022-10-20T01:43:22;98269.31;;;9.45;77.80
38912;BME280;28444;48.056;14.408;2022-10-20T01:45:51;98274.97;;;9.47;78.65
38912;BME280;28444;48.056;14.408;2022-10-20T01:48:20;98277.16;;;9.48;78.72
38912;BME280;28444;48.056;14.408;2022-10-20T01:50:48;98264.38;;;9.43;77.41
38912;BME280;28444;48.056;14.408;2022-10-20T01:53:15;98264.69;;;9.32;77.85
38912;BME280;28444;48.056;14.408;2022-10-20T01:55:41;98269.22;;;9.29;77.80
38912;BME280;28444;48.056;14.408;2022-10-20T01:58:53;98272.03;;;9.16;78.81
38912;BME280;28444;48.056;14.408;2022-10-20T02:01:36;98266.97;;;9.20;78.78
38912;BME280;28444;48.056;14.408;2022-10-20T02:04:09;98266.19;;;9.12;78.87
38912;BME280;28444;48.056;14.408;2022-10-20T02:06:49;98261.88;;;8.96;79.16
38912;BME280;28444;48.056;14.408;2022-10-20T02:09:39;98258.75;;;8.91;79.22
38912;BME280;28444;48.056;14.408;2022-10-20T02:12:15;98260.03;;;8.90;78.96
38912;BME280;28444;48.056;14.408;2022-10-20T02:14:44;98255.09;;;8.89;79.19
38912;BME280;28444;48.056;14.408;2022-10-20T02:17:14;98251.06;;;8.82;79.91
38912;BME280;28444;48.056;14.408;2022-10-20T02:19:43;98245.19;;;8.78;80.46
38912;BME280;28444;48.056;14.408;2022-10-20T02:22:13;98248.69;;;8.79;80.17
38912;BME280;28444;48.056;14.408;2022-10-20T02:24:43;98260.31;;;8.79;80.37
38912;BME280;28444;48.056;14.408;2022-10-20T02:27:22;98250.25;;;8.74;80.28
38912;BME280;28444;48.056;14.408;2022-10-20T02:29:56;98234.44;;;8.73;80.93
38912;BME280;28444;48.056;14.408;2022-10-20T02:32:24;98230.38;;;8.66;81.27
38912;BME280;28444;48.056;14.408;2022-10-20T02:34:52;98229.38;;;8.56;80.81
38912;BME280;28444;48.056;14.408;2022-10-20T02:37:19;98223.00;;;8.53;81.24
38912;BME280;28444;48.056;14.408;2022-10-20T02:39:45;98231.94;;;8.54;81.62
38912;BME280;28444;48.056;14.408;2022-10-20T02:42:12;98224.25;;;8.52;81.62
38912;BME280;28444;48.056;14.408;2022-10-20T02:44:39;98225.47;;;8.43;81.49
38912;BME280;28444;48.056;14.408;2022-10-20T02:47:05;98227.88;;;8.47;81.63
38912;BME280;28444;48.056;14.408;2022-10-20T02:49:32;98227.31;;;8.49;81.69
38912;BME280;28444;48.056;14.408;2022-10-20T02:51:59;98226.75;;;8.42;81.61
38912;BME280;28444;48.056;14.408;2022-10-20T02:54:26;98226.31;;;8.38;82.25
38912;BME280;28444;48.056;14.408;2022-10-20T02:56:55;98227.78;;;8.39;82.15
38912;BME280;28444;48.056;14.408;2022-10-20T02:59:22;98212.25;;;8.34;82.82
38912;BME280;28444;48.056;14.408;2022-10-20T03:01:48;98217.19;;;8.36;83.00
38912;BME280;28444;48.056;14.408;2022-10-20T03:04:17;98217.13;;;8.28;82.13
38912;BME280;28444;48.056;14.408;2022-10-20T03:06:44;98224.69;;;8.22;82.46
38912;BME280;28444;48.056;14.408;2022-10-20T03:09:11;98225.19;;;8.20;82.99
38912;BME280;28444;48.056;14.408;2022-10-20T03:11:37;98223.66;;;8.12;83.96
38912;BME280;28444;48.056;14.408;2022-10-20T03:14:04;98221.34;;;8.16;83.45
38912;BME280;28444;48.056;14.408;2022-10-20T03:16:31;98216.22;;;8.12;83.00
38912;BME280;28444;48.056;14.408;2022-10-20T03:18:57;98205.06;;;8.03;83.75
38912;BME280;28444;48.056;14.408;2022-10-20T03:21:32;98209.31;;;8.11;85.28
38912;BME280;28444;48.056;14.408;2022-10-20T03:23:59;98214.97;;;8.13;84.09
38912;BME280;28444;48.056;14.408;2022-10-20T03:26:26;98213.84;;;8.09;84.47
38912;BME280;28444;48.056;14.408;2022-10-20T03:28:53;98214.03;;;8.11;84.35
38912;BME280;28444;48.056;14.408;2022-10-20T03:31:19;98217.22;;;8.02;83.99
38912;BME280;28444;48.056;14.408;2022-10-20T03:33:46;98219.28;;;8.09;84.50
38912;BME280;28444;48.056;14.408;2022-10-20T03:36:13;98209.31;;;8.11;84.41
38912;BME280;28444;48.056;14.408;2022-10-20T03:38:40;98203.22;;;8.18;84.13
38912;BME280;28444;48.056;14.408;2022-10-20T03:41:09;98197.16;;;8.12;83.07
38912;BME280;28444;48.056;14.408;2022-10-20T03:43:39;98204.13;;;8.00;83.70
38912;BME280;28444;48.056;14.408;2022-10-20T03:46:08;98199.81;;;8.05;84.35
38912;BME280;28444;48.056;14.408;2022-10-20T03:48:35;98202.03;;;8.06;83.61
38912;BME280;28444;48.056;14.408;2022-10-20T03:51:02;98195.00;;;7.97;84.41
38912;BME280;28444;48.056;14.408;2022-10-20T03:53:30;98192.09;;;7.95;85.09
38912;BME280;28444;48.056;14.408;2022-10-20T03:55:56;98195.97;;;8.00;83.47
38912;BME280;28444;48.056;14.408;2022-10-20T03:58:23;98184.53;;;8.02;84.86
38912;BME280;28444;48.056;14.408;2022-10-20T04:00:54;98186.44;;;7.93;83.84
38912;BME280;28444;48.056;14.408;2022-10-20T04:03:21;98185.16;;;7.94;83.77
38912;BME280;28444;48.056;14.408;2022-10-20T04:05:48;98184.44;;;7.94;83.00
38912;BME280;28444;48.056;14.408;2022-10-20T04:08:14;98184.84;;;7.98;83.24
38912;BME280;28444;48.056;14.408;2022-10-20T04:10:41;98180.56;;;8.03;83.29
38912;BME280;28444;48.056;14.408;2022-10-20T04:13:07;98174.91;;;8.01;82.92
38912;BME280;28444;48.056;14.408;2022-10-20T04:15:34;98177.06;;;8.02;83.72
38912;BME280;28444;48.056;14.408;2022-10-20T04:18:01;98169.66;;;8.03;83.96
38912;BME280;28444;48.056;14.408;2022-10-20T04:20:28;98176.56;;;8.04;83.99
38912;BME280;28444;48.056;14.408;2022-10-20T04:22:54;98174.69;;;7.99;82.88
38912;BME280;28444;48.056;14.408;2022-10-20T04:25:21;98173.03;;;7.95;82.95
38912;BME280;28444;48.056;14.408;2022-10-20T04:27:47;98171.38;;;7.92;83.32
38912;BME280;28444;48.056;14.408;2022-10-20T04:30:14;98173.75;;;7.96;83.65
38912;BME280;28444;48.056;14.408;2022-10-20T04:32:41;98163.94;;;7.93;82.88
38912;BME280;28444;48.056;14.408;2022-10-20T04:35:08;98159.81;;;8.00;83.56
38912;BME280;28444;48.056;14.408;2022-10-20T04:37:34;98165.06;;;7.97;82.17
38912;BME280;28444;48.056;14.408;2022-10-20T04:40:02;98155.47;;;7.83;83.61
38912;BME280;28444;48.056;14.408;2022-10-20T04:42:29;98162.72;;;7.81;82.99
38912;BME280;28444;48.056;14.408;2022-10-20T04:44:55;98165.22;;;7.79;83.09
38912;BME280;28444;48.056;14.408;2022-10-20T04:47:23;98164.91;;;7.82;83.55
38912;BME280;28444;48.056;14.408;2022-10-20T04:49:50;98159.56;;;7.77;82.84
38912;BME280;28444;48.056;14.408;2022-10-20T04:52:16;98147.84;;;7.82;84.10
38912;BME280;28444;48.056;14.408;2022-10-20T04:54:43;98154.66;;;7.75;83.07
38912;BME280;28444;48.056;14.408;2022-10-20T04:57:10;98139.84;;;7.84;83.46
38912;BME280;28444;48.056;14.408;2022-10-20T04:59:36;98147.44;;;7.78;83.95
38912;BME280;28444;48.056;14.408;2022-10-20T05:02:03;98144.38;;;7.81;83.11
38912;BME280;28444;48.056;14.408;2022-10-20T05:04:29;98147.53;;;7.72;83.92
38912;BME280;28444;48.056;14.408;2022-10-20T05:06:56;98139.38;;;7.72;82.74
38912;BME280;28444;48.056;14.408;2022-10-20T05:09:23;98158.44;;;7.72;83.66
38912;BME280;28444;48.056;14.408;2022-10-20T05:11:50;98154.97;;;7.71;83.25
38912;BME280;28444;48.056;14.408;2022-10-20T05:14:16;98152.25;;;7.71;84.31
38912;BME280;28444;48.056;14.408;2022-10-20T05:16:43;98144.72;;;7.78;83.90
38912;BME280;28444;48.056;14.408;2022-10-20T05:19:10;98139.59;;;7.74;82.62
38912;BME280;28444;48.056;14.408;2022-10-20T05:21:36;98145.47;;;7.65;83.07
38912;BME280;28444;48.056;14.408;2022-10-20T05:24:04;98138.75;;;7.66;83.26
38912;BME280;28444;48.056;14.408;2022-10-20T05:26:33;98142.03;;;7.64;83.41
38912;BME280;28444;48.056;14.408;2022-10-20T05:29:06;98140.56;;;7.63;83.33
38912;BME280;28444;48.056;14.408;2022-10-20T05:31:38;98139.19;;;7.70;84.38
38912;BME280;28444;48.056;14.408;2022-10-20T05:34:06;98143.81;;;7.62;83.09
38912;BME280;28444;48.056;14.408;2022-10-20T05:36:33;98146.13;;;7.58;83.99
38912;BME280;28444;48.056;14.408;2022-10-20T05:38:59;98141.09;;;7.62;84.52
38912;BME280;28444;48.056;14.408;2022-10-20T05:41:28;98142.75;;;7.65;84.24
38912;BME280;28444;48.056;14.408;2022-10-20T05:44:02;98146.94;;;7.66;83.20
38912;BME280;28444;48.056;14.408;2022-10-20T05:46:31;98149.06;;;7.60;83.03
38912;BME280;28444;48.056;14.408;2022-10-20T05:49:00;98144.66;;;7.57;83.16
38912;BME280;28444;48.056;14.408;2022-10-20T05:51:29;98144.59;;;7.49;84.00
38912;BME280;28444;48.056;14.408;2022-10-20T05:53:57;98150.75;;;7.50;84.14
38912;BME280;28444;48.056;14.408;2022-10-20T05:56:25;98143.72;;;7.54;83.49
38912;BME280;28444;48.056;14.408;2022-10-20T05:58:53;98151.47;;;7.50;83.95
38912;BME280;28444;48.056;14.408;2022-10-20T06:01:22;98155.47;;;7.49;84.27
38912;BME280;28444;48.056;14.408;2022-10-20T06:03:52;98154.81;;;7.56;83.21
38912;BME280;28444;48.056;14.408;2022-10-20T06:06:20;98155.75;;;7.59;82.95
38912;BME280;28444;48.056;14.408;2022-10-20T06:08:48;98157.63;;;7.64;84.66
38912;BME280;28444;48.056;14.408;2022-10-20T06:11:17;98157.88;;;7.53;83.43
38912;BME280;28444;48.056;14.408;2022-10-20T06:13:44;98151.56;;;7.58;84.27
38912;BME280;28444;48.056;14.408;2022-10-20T06:16:22;98154.28;;;7.58;84.84
38912;BME280;28444;48.056;14.408;2022-10-20T06:18:49;98165.38;;;7.60;84.58
38912;BME280;28444;48.056;14.408;2022-10-20T06:21:21;98161.94;;;7.59;83.41
38912;BME280;28444;48.056;14.408;2022-10-20T06:23:48;98157.94;;;7.74;84.00
38912;BME280;28444;48.056;14.408;2022-10-20T06:26:21;98154.75;;;7.83;84.05
38912;BME280;28444;48.056;14.408;2022-10-20T06:28:50;98152.34;;;7.79;83.82
38912;BME280;28444;48.056;14.408;2022-10-20T06:31:28;98156.72;;;7.82;83.84
38912;BME280;28444;48.056;14.408;2022-10-20T06:33:56;98164.91;;;7.82;82.91
38912;BME280;28444;48.056;14.408;2022-10-20T06:36:24;98167.69;;;7.90;83.71
38912;BME280;28444;48.056;14.408;2022-10-20T06:38:56;98166.44;;;7.91;83.53
38912;BME280;28444;48.056;14.408;2022-10-20T06:41:24;98167.44;;;8.01;82.72
38912;BME280;28444;48.056;14.408;2022-10-20T06:43:52;98171.50;;;8.08;83.64
38912;BME280;28444;48.056;14.408;2022-10-20T06:46:27;98168.78;;;8.08;82.22
38912;BME280;28444;48.056;14.408;2022-10-20T06:48:54;98173.75;;;7.96;83.10
38912;BME280;28444;48.056;14.408;2022-10-20T06:51:24;98172.38;;;8.03;83.20
38912;BME280;28444;48.056;14.408;2022-10-20T06:53:51;98163.66;;;8.04;83.44
38912;BME280;28444;48.056;14.408;2022-10-20T06:56:21;98168.47;;;8.11;83.71
38912;BME280;28444;48.056;14.408;2022-10-20T06:58:50;98174.53;;;8.17;83.31
38912;BME280;28444;48.056;14.408;2022-10-20T07:01:22;98170.03;;;8.28;83.56
38912;BME280;28444;48.056;14.408;2022-10-20T07:03:51;98167.75;;;8.32;83.56
38912;BME280;28444;48.056;14.408;2022-10-20T07:06:24;98172.66;;;8.33;82.54
38912;BME280;28444;48.056;14.408;2022-10-20T07:08:52;98169.38;;;8.35;82.96
38912;BME280;28444;48.056;14.408;2022-10-20T07:11:29;98166.34;;;8.38;81.57
38912;BME280;28444;48.056;14.408;2022-10-20T07:14:00;98166.03;;;8.42;82.30
38912;BME280;28444;48.056;14.408;2022-10-20T07:16:30;98157.19;;;8.49;81.63
38912;BME280;28444;48.056;14.408;2022-10-20T07:18:58;98156.72;;;8.37;82.14
38912;BME280;28444;48.056;14.408;2022-10-20T07:21:26;98166.44;;;8.46;81.93
38912;BME280;28444;48.056;14.408;2022-10-20T07:24:02;98166.03;;;8.42;82.02
38912;BME280;28444;48.056;14.408;2022-10-20T07:26:31;98165.63;;;8.38;82.28
38912;BME280;28444;48.056;14.408;2022-10-20T07:28:59;98152.81;;;8.46;82.91
38912;BME280;28444;48.056;14.408;2022-10-20T07:31:30;98159.38;;;8.51;83.70
38912;BME280;28444;48.056;14.408;2022-10-20T07:33:58;98166.50;;;8.54;82.45
38912;BME280;28444;48.056;14.408;2022-10-20T07:36:45;98165.50;;;8.64;81.74
38912;BME280;28444;48.056;14.408;2022-10-20T07:39:12;98151.31;;;8.66;81.34
38912;BME280;28444;48.056;14.408;2022-10-20T07:41:39;98150.84;;;8.75;82.11
38912;BME280;28444;48.056;14.408;2022-10-20T07:44:09;98152.00;;;8.87;81.53
38912;BME280;28444;48.056;14.408;2022-10-20T07:46:36;98147.13;;;8.94;81.82
38912;BME280;28444;48.056;14.408;2022-10-20T07:49:02;98147.31;;;8.96;80.80
38912;BME280;28444;48.056;14.408;2022-10-20T07:51:49;98145.19;;;9.02;80.49
38912;BME280;28444;48.056;14.408;2022-10-20T07:54:16;98134.25;;;9.02;80.00
38912;BME280;28444;48.056;14.408;2022-10-20T07:56:43;98134.44;;;9.04;79.49
38912;BME280;28444;48.056;14.408;2022-10-20T07:59:12;98133.75;;;9.11;80.06
38912;BME280;28444;48.056;14.408;2022-10-20T08:01:38;98140.13;;;9.13;77.87
38912;BME280;28444;48.056;14.408;2022-10-20T08:04:05;98139.75;;;9.09;79.89
38912;BME280;28444;48.056;14.408;2022-10-20T08:06:32;98129.75;;;9.04;80.12
38912;BME280;28444;48.056;14.408;2022-10-20T08:08:59;98128.47;;;9.05;79.60
38912;BME280;28444;48.056;14.408;2022-10-20T08:11:26;98135.03;;;9.10;79.58
38912;BME280;28444;48.056;14.408;2022-10-20T08:13:52;98132.13;;;9.08;79.62
38912;BME280;28444;48.056;14.408;2022-10-20T08:16:19;98127.94;;;9.14;79.88
38912;BME280;28444;48.056;14.408;2022-10-20T08:18:54;98129.81;;;9.20;80.18
38912;BME280;28444;48.056;14.408;2022-10-20T08:21:41;98135.69;;;9.31;79.55
38912;BME280;28444;48.056;14.408;2022-10-20T08:24:08;98129.38;;;9.44;79.46
38912;BME280;28444;48.056;14.408;2022-10-20T08:26:34;98125.38;;;9.45;80.06
38912;BME280;28444;48.056;14.408;2022-10-20T08:29:01;98124.47;;;9.58;80.60
38912;BME280;28444;48.056;14.408;2022-10-20T08:31:28;98122.88;;;9.62;79.33
38912;BME280;28444;48.056;14.408;2022-10-20T08:33:54;98119.59;;;9.64;79.30
38912;BME280;28444;48.056;14.408;2022-10-20T08:36:22;98123.97;;;9.67;78.28
38912;BME280;28444;48.056;14.408;2022-10-20T08:38:48;98135.78;;;9.62;79.18
38912;BME280;28444;48.056;14.408;2022-10-20T08:41:21;98132.88;;;9.68;77.68
38912;BME280;28444;48.056;14.408;2022-10-20T08:43:51;98138.91;;;9.74;78.44
38912;BME280;28444;48.056;14.408;2022-10-20T08:46:22;98136.72;;;9.80;78.59
38912;BME280;28444;48.056;14.408;2022-10-20T08:48:50;98130.75;;;9.81;77.43
38912;BME280;28444;48.056;14.408;2022-10-20T08:51:19;98129.28;;;9.80;78.78
38912;BME280;28444;48.056;14.408;2022-10-20T08:53:48;98118.72;;;9.84;78.75
38912;BME280;28444;48.056;14.408;2022-10-20T08:56:17;98125.66;;;9.93;78.60
38912;BME280;28444;48.056;14.408;2022-10-20T08:58:46;98112.56;;;9.99;79.24
38912;BME280;28444;48.056;14.408;2022-10-20T09:01:18;98108.19;;;9.96;78.64
38912;BME280;28444;48.056;14.408;2022-10-20T09:03:55;98093.81;;;10.03;78.80
38912;BME280;28444;48.056;14.408;2022-10-20T09:06:23;98095.25;;;10.12;78.27
38912;BME280;28444;48.056;14.408;2022-10-20T09:08:50;98088.34;;;10.11;78.53
38912;BME280;28444;48.056;14.408;2022-10-20T09:11:29;98085.41;;;10.09;78.76
38912;BME280;28444;48.056;14.408;2022-10-20T09:14:01;98087.25;;;10.14;78.46
38912;BME280;28444;48.056;14.408;2022-10-20T09:16:33;98078.69;;;10.10;78.18
38912;BME280;28444;48.056;14.408;2022-10-20T09:19:18;98072.66;;;10.04;78.35
38912;BME280;28444;48.056;14.408;2022-10-20T09:21:50;98079.94;;;10.17;78.65
38912;BME280;28444;48.056;14.408;2022-10-20T09:24:19;98075.59;;;10.21;77.73
38912;BME280;28444;48.056;14.408;2022-10-20T09:26:48;98067.38;;;10.21;78.11
38912;BME280;28444;48.056;14.408;2022-10-20T09:29:35;98073.59;;;10.29;78.13
38912;BME280;28444;48.056;14.408;2022-10-20T09:32:02;98077.25;;;10.32;78.63
38912;BME280;28444;48.056;14.408;2022-10-20T09:35:30;98072.84;;;10.44;78.84
38912;BME280;28444;48.056;14.408;2022-10-20T09:38:18;98063.72;;;10.57;77.56
38912;BME280;28444;48.056;14.408;2022-10-20T09:41:23;98056.03;;;10.63;77.65
38912;BME280;28444;48.056;14.408;2022-10-20T09:46:25;98053.13;;;10.69;77.48
38912;BME280;28444;48.056;14.408;2022-10-20T09:48:53;98053.09;;;10.76;77.31
38912;BME280;28444;48.056;14.408;2022-10-20T09:51:24;98064.41;;;10.73;75.84
38912;BME280;28444;48.056;14.408;2022-10-20T09:54:14;98070.25;;;10.77;76.04
38912;BME280;28444;48.056;14.408;2022-10-20T09:56:43;98052.16;;;10.81;76.81
38912;BME280;28444;48.056;14.408;2022-10-20T09:59:31;98061.84;;;10.82;77.30
38912;BME280;28444;48.056;14.408;2022-10-20T10:02:02;98047.03;;;10.85;76.61
38912;BME280;28444;48.056;14.408;2022-10-20T10:04:37;98048.31;;;10.92;76.65
38912;BME280;28444;48.056;14.408;2022-10-20T10:07:09;98046.81;;;10.99;76.11
38912;BME280;28444;48.056;14.408;2022-10-20T10:10:06;98037.50;;;11.02;76.47
38912;BME280;28444;48.056;14.408;2022-10-20T10:12:34;98039.16;;;11.05;76.65
38912;BME280;28444;48.056;14.408;2022-10-20T10:15:06;98040.56;;;11.14;76.79
38912;BME280;28444;48.056;14.408;2022-10-20T10:17:49;98036.84;;;11.26;75.58
38912;BME280;28444;48.056;14.408;2022-10-20T10:20:39;98033.94;;;11.24;75.77
38912;BME280;28444;48.056;14.408;2022-10-20T10:23:19;98015.63;;;11.35;75.98
38912;BME280;28444;48.056;14.408;2022-10-20T10:25:47;98002.06;;;11.44;75.46
38912;BME280;28444;48.056;14.408;2022-10-20T10:28:27;98005.69;;;11.47;75.50
38912;BME280;28444;48.056;14.408;2022-10-20T10:31:20;98010.84;;;11.43;74.31
38912;BME280;28444;48.056;14.408;2022-10-20T10:33:49;98004.47;;;11.40;74.16
38912;BME280;28444;48.056;14.408;2022-10-20T10:36:26;98001.13;;;11.49;75.38
38912;BME280;28444;48.056;14.408;2022-10-20T10:38:53;97988.66;;;11.56;75.62
38912;BME280;28444;48.056;14.408;2022-10-20T10:44:20;97987.72;;;11.61;75.09
38912;BME280;28444;48.056;14.408;2022-10-20T10:47:04;97978.50;;;11.74;75.75
38912;BME280;28444;48.056;14.408;2022-10-20T10:50:02;97975.31;;;11.85;74.74
38912;BME280;28444;48.056;14.408;2022-10-20T10:52:57;97985.56;;;11.85;75.00
38912;BME280;28444;48.056;14.408;2022-10-20T10:58:58;97981.53;;;11.86;74.56
38912;BME280;28444;48.056;14.408;2022-10-20T11:01:46;97975.56;;;11.97;74.27
38912;BME280;28444;48.056;14.408;2022-10-20T11:07:48;97979.72;;;12.06;74.32
38912;BME280;28444;48.056;14.408;2022-10-20T11:13:42;97963.91;;;12.14;74.25
38912;BME280;28444;48.056;14.408;2022-10-20T11:16:22;97958.97;;;12.12;74.96
38912;BME280;28444;48.056;14.408;2022-10-20T11:25:32;97957.06;;;12.22;74.92
38912;BME280;28444;48.056;14.408;2022-10-20T11:27:59;97959.81;;;12.22;76.06
38912;BME280;28444;48.056;14.408;2022-10-20T11:30:28;97943.53;;;12.24;75.52
38912;BME280;28444;48.056;14.408;2022-10-20T11:33:04;97936.34;;;12.29;74.92
38912;BME280;28444;48.056;14.408;2022-10-20T11:35:44;97935.38;;;12.34;75.47
38912;BME280;28444;48.056;14.408;2022-10-20T11:38:55;97922.31;;;12.42;74.96
38912;BME280;28444;48.056;14.408;2022-10-20T11:41:48;97926.50;;;12.43;75.46
38912;BME280;28444;48.056;14.408;2022-10-20T11:44:28;97916.88;;;12.52;74.33
38912;BME280;28444;48.056;14.408;2022-10-20T11:47:20;97902.03;;;12.55;75.00
38912;BME280;28444;48.056;14.408;2022-10-20T11:49:48;97892.91;;;12.52;75.10
38912;BME280;28444;48.056;14.408;2022-10-20T12:01:37;97902.41;;;12.42;75.83
38912;BME280;28444;48.056;14.408;2022-10-20T12:04:39;97909.06;;;12.48;76.21
38912;BME280;28444;48.056;14.408;2022-10-20T12:07:40;97905.09;;;12.59;75.58
38912;BME280;28444;48.056;14.408;2022-10-20T12:13:39;97896.13;;;12.59;75.88
38912;BME280;28444;48.056;14.408;2022-10-20T12:16:06;97898.47;;;12.62;74.71
38912;BME280;28444;48.056;14.408;2022-10-20T12:18:34;97884.97;;;12.74;75.37
38912;BME280;28444;48.056;14.408;2022-10-20T12:21:07;97883.56;;;12.83;75.81
38912;BME280;28444;48.056;14.408;2022-10-20T12:24:27;97877.09;;;12.88;76.25
38912;BME280;28444;48.056;14.408;2022-10-20T12:27:23;97864.09;;;12.88;74.90
38912;BME280;28444;48.056;14.408;2022-10-20T12:29:59;97864.38;;;12.83;74.25
38912;BME280;28444;48.056;14.408;2022-10-20T12:35:00;97847.91;;;12.83;74.61
38912;BME280;28444;48.056;14.408;2022-10-20T12:37:30;97847.75;;;12.81;75.22
38912;BME280;28444;48.056;14.408;2022-10-20T12:40:33;97857.75;;;12.86;74.88
38912;BME280;28444;48.056;14.408;2022-10-20T12:43:04;97856.44;;;12.87;74.96
38912;BME280;28444;48.056;14.408;2022-10-20T12:45:38;97838.53;;;12.86;74.79
38912;BME280;28444;48.056;14.408;2022-10-20T12:48:08;97852.97;;;12.86;74.85
38912;BME280;28444;48.056;14.408;2022-10-20T12:50:45;97846.75;;;12.86;74.70
38912;BME280;28444;48.056;14.408;2022-10-20T12:53:34;97848.34;;;12.89;74.97
38912;BME280;28444;48.056;14.408;2022-10-20T12:56:07;97842.72;;;12.87;74.36
38912;BME280;28444;48.056;14.408;2022-10-20T13:11:41;97821.06;;;12.91;73.72
38912;BME280;28444;48.056;14.408;2022-10-20T13:14:32;97819.63;;;12.90;73.63
38912;BME280;28444;48.056;14.408;2022-10-20T13:17:15;97825.06;;;12.80;73.94
38912;BME280;28444;48.056;14.408;2022-10-20T13:19:46;97833.88;;;12.79;74.42
38912;BME280;28444;48.056;14.408;2022-10-20T13:22:37;97830.84;;;12.74;74.23
38912;BME280;28444;48.056;14.408;2022-10-20T13:28:26;97819.06;;;12.64;75.41
38912;BME280;28444;48.056;14.408;2022-10-20T13:34:13;97819.81;;;12.65;74.08
38912;BME280;28444;48.056;14.408;2022-10-20T13:37:06;97822.97;;;12.61;74.29
38912;BME280;28444;48.056;14.408;2022-10-20T13:43:23;97809.97;;;12.62;75.28
38912;BME280;28444;48.056;14.408;2022-10-20T13:46:08;97807.09;;;12.69;74.91
38912;BME280;28444;48.056;14.408;2022-10-20T13:49:10;97813.91;;;12.68;75.25
38912;BME280;28444;48.056;14.408;2022-10-20T13:51:46;97817.19;;;12.67;74.81
38912;BME280;28444;48.056;14.408;2022-10-20T13:54:34;97803.94;;;12.73;75.85
38912;BME280;28444;48.056;14.408;2022-10-20T13:57:03;97809.75;;;12.77;74.74
38912;BME280;28444;48.056;14.408;2022-10-20T13:59:30;97798.03;;;12.76;75.27
38912;BME280;28444;48.056;14.408;2022-10-20T14:02:23;97802.09;;;12.85;74.86
38912;BME280;28444;48.056;14.408;2022-10-20T14:05:02;97795.91;;;12.85;74.54
38912;BME280;28444;48.056;14.408;2022-10-20T14:07:37;97794.03;;;12.87;74.52
38912;BME280;28444;48.056;14.408;2022-10-20T14:10:04;97788.66;;;12.80;74.04
38912;BME280;28444;48.056;14.408;2022-10-20T14:12:31;97776.84;;;12.87;73.75
38912;BME280;28444;48.056;14.408;2022-10-20T14:14:58;97790.00;;;12.88;73.81
38912;BME280;28444;48.056;14.408;2022-10-20T14:17:27;97775.56;;;12.88;74.80
38912;BME280;28444;48.056;14.408;2022-10-20T14:20:26;97778.59;;;12.92;74.30
38912;BME280;28444;48.056;14.408;2022-10-20T14:22:56;97778.59;;;12.82;74.86
38912;BME280;28444;48.056;14.408;2022-10-20T14:25:24;97779.72;;;12.79;75.15
38912;BME280;28444;48.056;14.408;2022-10-20T14:27:53;97783.31;;;12.82;75.30
38912;BME280;28444;48.056;14.408;2022-10-20T14:30:20;97773.41;;;12.86;74.51
38912;BME280;28444;48.056;14.408;2022-10-20T14:32:48;97778.72;;;12.84;74.42
38912;BME280;28444;48.056;14.408;2022-10-20T14:35:24;97772.22;;;12.80;75.14
38912;BME280;28444;48.056;14.408;2022-10-20T14:38:02;97778.84;;;12.76;74.69
38912;BME280;28444;48.056;14.408;2022-10-20T14:40:32;97767.97;;;12.69;75.72